createdAt,value
2018-06-09T00:02:06.333Z,93549.02
2018-06-09T00:04:34.086Z,93553.28
2018-06-09T00:07:01.835Z,93552.25
2018-06-09T00:09:29.611Z,93557.52
2018-06-09T00:11:57.355Z,93564.49
2018-06-09T00:14:25.140Z,93559.66
2018-06-09T00:16:52.819Z,93552.90
2018-06-09T00:19:20.558Z,93566.03
2018-06-09T00:21:48.340Z,93567.98
2018-06-09T00:24:16.190Z,93555.67
2018-06-09T00:26:43.972Z,93562.83
2018-06-09T00:29:11.715Z,93570.58
2018-06-09T00:31:39.431Z,93571.66
2018-06-09T00:34:07.105Z,93574.11
2018-06-09T00:36:34.816Z,93575.13
2018-06-09T00:39:02.688Z,93566.51
2018-06-09T00:41:30.366Z,93560.53
2018-06-09T00:43:58.126Z,93556.45
2018-06-09T00:46:25.877Z,93557.44
2018-06-09T00:48:53.592Z,93553.28
2018-06-09T00:51:21.285Z,93543.70
2018-06-09T00:53:48.984Z,93547.16
2018-06-09T00:56:22.499Z,93552.45
2018-06-09T00:58:50.166Z,93551.81
2018-06-09T01:01:17.906Z,93551.03
2018-06-09T01:03:45.591Z,93546.00
2018-06-09T01:06:13.304Z,93543.00
2018-06-09T01:08:41.095Z,93548.97
2018-06-09T01:11:08.802Z,93550.88
2018-06-09T01:13:36.544Z,93545.19
2018-06-09T01:16:04.370Z,93540.83
2018-06-09T01:18:32.086Z,93542.44
2018-06-09T01:20:59.810Z,93540.25
2018-06-09T01:23:27.602Z,93540.83
2018-06-09T01:25:55.381Z,93545.55
2018-06-09T01:28:23.083Z,93537.80
2018-06-09T01:30:50.800Z,93538.09
2018-06-09T01:33:18.567Z,93539.67
2018-06-09T01:35:46.260Z,93533.92
2018-06-09T01:38:13.960Z,93542.77
2018-06-09T01:40:41.718Z,93538.37
2018-06-09T01:43:09.507Z,93535.80
2018-06-09T01:45:37.243Z,93533.66
2018-06-09T01:48:04.972Z,93524.20
2018-06-09T01:50:32.681Z,93523.08
2018-06-09T01:53:00.419Z,93532.86
2018-06-09T01:55:28.087Z,93529.86
2018-06-09T01:57:55.845Z,93531.09
2018-06-09T02:00:23.537Z,93536.77
2018-06-09T02:02:51.302Z,93537.02
2018-06-09T02:05:19.049Z,93540.89
2018-06-09T02:07:46.746Z,93543.63
2018-06-09T02:10:14.517Z,93540.40
2018-06-09T02:12:42.192Z,93539.47
2018-06-09T02:15:10.219Z,93546.70
2018-06-09T02:17:37.934Z,93537.41
2018-06-09T02:20:05.684Z,93539.56
2018-06-09T02:22:33.419Z,93535.60
2018-06-09T02:25:01.178Z,93534.79
2018-06-09T02:27:28.895Z,93533.73
2018-06-09T02:29:56.622Z,93535.60
2018-06-09T02:32:24.343Z,93534.27
2018-06-09T02:34:52.073Z,93526.23
2018-06-09T02:37:19.774Z,93525.11
2018-06-09T02:39:47.538Z,93528.97
2018-06-09T02:42:15.348Z,93528.33
2018-06-09T02:44:43.028Z,93521.78
2018-06-09T02:47:10.758Z,93514.97
2018-06-09T02:49:38.453Z,93524.08
2018-06-09T02:52:06.172Z,93520.84
2018-06-09T02:54:33.921Z,93523.59
2018-06-09T02:57:01.656Z,93526.23
2018-06-09T02:59:29.321Z,93519.98
2018-06-09T03:01:57.019Z,93519.46
2018-06-09T03:04:24.804Z,93520.84
2018-06-09T03:06:52.622Z,93514.71
2018-06-09T03:09:20.394Z,93519.13
2018-06-09T03:11:48.162Z,93519.23
2018-06-09T03:14:15.850Z,93527.56
2018-06-09T03:16:43.594Z,93528.98
2018-06-09T03:19:11.293Z,93534.66
2018-06-09T03:21:39.131Z,93530.91
2018-06-09T03:24:06.856Z,93528.27
2018-06-09T03:26:34.594Z,93526.62
2018-06-09T03:29:02.400Z,93536.14
2018-06-09T03:31:30.163Z,93533.23
2018-06-09T03:33:57.922Z,93536.14
2018-06-09T03:36:25.730Z,93541.69
2018-06-09T03:38:53.668Z,93540.98
2018-06-09T03:41:21.611Z,93544.76
2018-06-09T03:43:49.303Z,93544.37
2018-06-09T03:46:17.223Z,93553.63
2018-06-09T03:48:45.080Z,93552.59
2018-06-09T03:51:12.820Z,93559.72
2018-06-09T03:53:40.558Z,93567.11
2018-06-09T03:56:08.290Z,93564.20
2018-06-09T03:58:36.060Z,93561.92
2018-06-09T04:01:03.874Z,93560.08
2018-06-09T04:03:31.602Z,93563.08
2018-06-09T04:05:59.396Z,93555.13
2018-06-09T04:08:27.167Z,93557.66
2018-06-09T04:10:54.860Z,93555.05
2018-06-09T04:13:22.574Z,93563.86
2018-06-09T04:15:50.283Z,93565.58
2018-06-09T04:18:18.015Z,93569.66
2018-06-09T04:20:45.723Z,93565.75
2018-06-09T04:23:13.467Z,93570.92
2018-06-09T04:25:41.178Z,93572.92
2018-06-09T04:28:09.088Z,93572.50
2018-06-09T04:30:36.812Z,93565.45
2018-06-09T04:33:04.553Z,93573.20
2018-06-09T04:35:32.307Z,93583.63
2018-06-09T04:38:00.237Z,93575.32
2018-06-09T04:40:27.924Z,93571.23
2018-06-09T04:42:55.651Z,93584.05
2018-06-09T04:45:23.382Z,93577.29
2018-06-09T04:47:51.140Z,93570.78
2018-06-09T04:50:18.888Z,93577.69
2018-06-09T04:52:46.586Z,93575.59
2018-06-09T04:55:14.306Z,93579.39
2018-06-09T04:57:42.016Z,93591.77
2018-06-09T05:00:09.742Z,93597.94
2018-06-09T05:02:37.517Z,93581.92
2018-06-09T05:05:05.259Z,93586.85
2018-06-09T05:07:33.166Z,93586.52
2018-06-09T05:10:00.865Z,93587.10
2018-06-09T05:12:29.148Z,93575.48
2018-06-09T05:14:56.902Z,93577.75
2018-06-09T05:17:24.615Z,93572.80
2018-06-09T05:19:52.338Z,93572.30
2018-06-09T05:22:20.036Z,93572.59
2018-06-09T05:24:47.753Z,93572.44
2018-06-09T05:27:15.469Z,93580.27
2018-06-09T05:29:43.203Z,93579.50
2018-06-09T05:32:10.928Z,93580.72
2018-06-09T05:34:38.657Z,93584.00
2018-06-09T05:37:06.517Z,93583.20
2018-06-09T05:39:34.220Z,93588.09
2018-06-09T05:42:01.955Z,93587.16
2018-06-09T05:44:29.676Z,93593.98
2018-06-09T05:46:57.501Z,93592.80
2018-06-09T05:49:25.285Z,93599.73
2018-06-09T05:51:52.985Z,93600.13
2018-06-09T05:54:20.691Z,93603.75
2018-06-09T05:56:48.565Z,93606.69
2018-06-09T05:59:16.268Z,93611.49
2018-06-09T06:01:44.042Z,93610.09
2018-06-09T06:04:11.898Z,93616.45
2018-06-09T06:06:39.655Z,93617.34
2018-06-09T06:09:07.570Z,93617.34
2018-06-09T06:11:35.344Z,93614.83
2018-06-09T06:14:03.187Z,93616.02
2018-06-09T06:16:31.092Z,93619.94
2018-06-09T06:18:58.816Z,93620.91
2018-06-09T06:21:26.615Z,93620.31
2018-06-09T06:23:54.816Z,93620.38
2018-06-09T06:26:22.706Z,93621.36
2018-06-09T06:28:50.464Z,93623.34
2018-06-09T06:31:18.240Z,93625.12
2018-06-09T06:33:45.932Z,93628.99
2018-06-09T06:36:13.702Z,93631.34
2018-06-09T06:38:41.536Z,93631.98
2018-06-09T06:41:09.320Z,93633.94
2018-06-09T06:43:37.081Z,93632.11
2018-06-09T06:46:04.823Z,93636.22
2018-06-09T06:48:32.519Z,93633.91
2018-06-09T06:51:00.256Z,93632.95
2018-06-09T06:53:28.070Z,93637.13
2018-06-09T06:55:55.758Z,93647.28
2018-06-09T06:58:23.545Z,93651.67
2018-06-09T07:00:51.318Z,93649.58
2018-06-09T07:03:19.035Z,93649.52
2018-06-09T07:05:46.777Z,93649.28
2018-06-09T07:08:14.479Z,93647.97
2018-06-09T07:10:42.380Z,93647.97
2018-06-09T07:13:10.199Z,93655.28
2018-06-09T07:15:37.926Z,93653.96
2018-06-09T07:18:05.667Z,93647.66
2018-06-09T07:20:33.360Z,93653.88
2018-06-09T07:23:01.140Z,93648.61
2018-06-09T07:25:28.851Z,93646.77
2018-06-09T07:27:56.580Z,93646.61
2018-06-09T07:30:24.439Z,93639.13
2018-06-09T07:32:52.183Z,93642.58
2018-06-09T07:35:20.132Z,93642.69
2018-06-09T07:37:47.878Z,93641.02
2018-06-09T07:40:15.606Z,93636.27
2018-06-09T07:42:43.393Z,93636.64
2018-06-09T07:45:11.141Z,93629.77
2018-06-09T07:47:38.872Z,93632.75
2018-06-09T07:50:06.572Z,93630.17
2018-06-09T07:52:34.332Z,93628.39
2018-06-09T07:55:02.052Z,93627.95
2018-06-09T07:57:29.810Z,93624.52
2018-06-09T07:59:57.556Z,93625.28
2018-06-09T08:02:25.410Z,93622.66
2018-06-09T08:04:53.144Z,93619.55
2018-06-09T08:07:20.838Z,93616.03
2018-06-09T08:09:48.568Z,93618.05
2018-06-09T08:20:56.340Z,93626.13
2018-06-09T08:23:24.123Z,93625.88
2018-06-09T08:25:51.878Z,93624.53
2018-06-09T08:28:19.631Z,93624.88
2018-06-09T08:30:47.366Z,93618.81
2018-06-09T08:33:15.127Z,93626.55
2018-06-09T08:35:42.892Z,93616.95
2018-06-09T08:38:10.633Z,93617.42
2018-06-09T08:40:38.367Z,93619.49
2018-06-09T08:43:06.217Z,93621.57
2018-06-09T08:45:33.969Z,93625.62
2018-06-09T08:48:01.719Z,93615.36
2018-06-09T08:50:29.526Z,93615.82
2018-06-09T08:52:57.260Z,93616.02
2018-06-09T08:55:25.005Z,93614.42
2018-06-09T08:57:52.740Z,93613.70
2018-06-09T09:00:20.449Z,93615.20
2018-06-09T09:02:48.211Z,93614.66
2018-06-09T09:05:15.943Z,93612.31
2018-06-09T09:07:43.703Z,93616.97
2018-06-09T09:10:11.498Z,93623.66
2018-06-09T09:12:39.225Z,93616.23
2018-06-09T09:15:06.992Z,93613.03
2018-06-09T09:17:34.710Z,93604.70
2018-06-09T09:20:02.415Z,93617.08
2018-06-09T09:22:30.212Z,93616.77
2018-06-09T09:24:57.930Z,93615.70
2018-06-09T09:27:25.632Z,93615.29
2018-06-09T09:29:53.357Z,93619.53
2018-06-09T09:32:21.956Z,93614.31
2018-06-09T09:34:49.875Z,93616.65
2018-06-09T09:37:17.608Z,93620.72
2018-06-09T09:39:45.339Z,93616.05
2018-06-09T09:42:13.098Z,93617.77
2018-06-09T09:44:40.790Z,93607.39
2018-06-09T09:47:08.500Z,93610.33
2018-06-09T09:49:36.218Z,93604.13
2018-06-09T09:52:04.020Z,93599.42
2018-06-09T09:54:31.706Z,93601.13
2018-06-09T09:56:59.360Z,93606.14
2018-06-09T09:59:27.085Z,93606.14
2018-06-09T10:01:54.835Z,93608.70
2018-06-09T10:04:22.553Z,93608.21
2018-06-09T10:06:50.287Z,93601.30
2018-06-09T10:09:17.997Z,93599.58
2018-06-09T10:11:45.734Z,93599.24
2018-06-09T10:14:13.463Z,93597.78
2018-06-09T10:16:41.171Z,93593.72
2018-06-09T10:19:08.891Z,93590.31
2018-06-09T10:21:36.580Z,93588.77
2018-06-09T10:24:04.360Z,93587.31
2018-06-09T10:26:32.096Z,93582.28
2018-06-09T10:28:59.867Z,93587.41
2018-06-09T10:31:27.561Z,93584.95
2018-06-09T10:33:55.299Z,93582.16
2018-06-09T10:36:23.149Z,93586.08
2018-06-09T10:38:50.860Z,93574.38
2018-06-09T10:41:18.579Z,93570.13
2018-06-09T10:43:46.328Z,93573.78
2018-06-09T10:46:14.063Z,93569.36
2018-06-09T10:48:41.767Z,93571.34
2018-06-09T10:51:09.497Z,93563.22
2018-06-09T10:53:37.190Z,93563.02
2018-06-09T10:56:04.908Z,93566.37
2018-06-09T10:58:32.711Z,93569.69
2018-06-09T11:01:00.479Z,93565.57
2018-06-09T11:03:28.347Z,93564.36
2018-06-09T11:05:56.027Z,93559.66
2018-06-09T11:08:23.796Z,93561.63
2018-06-09T11:10:51.526Z,93557.83
2018-06-09T11:13:19.225Z,93551.86
2018-06-09T11:15:46.978Z,93556.41
2018-06-09T11:18:14.791Z,93556.16
2018-06-09T11:20:42.492Z,93551.75
2018-06-09T11:23:10.222Z,93546.09
2018-06-09T11:25:37.989Z,93551.25
2018-06-09T11:28:05.720Z,93550.91
2018-06-09T11:30:33.422Z,93551.63
2018-06-09T11:33:01.167Z,93553.42
2018-06-09T11:35:28.864Z,93555.81
2018-06-09T11:37:56.555Z,93551.80
2018-06-09T11:40:24.250Z,93550.66
2018-06-09T11:42:51.954Z,93546.12
2018-06-09T11:45:19.620Z,93545.46
2018-06-09T11:47:47.306Z,93546.80
2018-06-09T11:50:15.004Z,93535.98
2018-06-09T11:52:42.704Z,93534.11
2018-06-09T11:55:10.436Z,93524.22
2018-06-09T11:57:38.155Z,93523.16
2018-06-09T12:00:05.868Z,93521.41
2018-06-09T12:02:33.591Z,93525.33
2018-06-09T12:05:01.321Z,93522.48
2018-06-09T12:07:29.051Z,93529.60
2018-06-09T12:09:56.763Z,93535.70
2018-06-09T12:12:24.514Z,93540.10
2018-06-09T12:14:52.253Z,93536.27
2018-06-09T12:17:20.217Z,93532.41
2018-06-09T12:19:47.843Z,93530.59
2018-06-09T12:22:15.566Z,93527.81
2018-06-09T12:24:43.295Z,93535.42
2018-06-09T12:27:11.002Z,93540.13
2018-06-09T12:29:38.700Z,93544.81
2018-06-09T12:32:06.453Z,93554.78
2018-06-09T12:34:34.181Z,93549.64
2018-06-09T12:37:01.906Z,93546.77
2018-06-09T12:39:29.643Z,93564.72
2018-06-09T12:41:57.559Z,93542.05
2018-06-09T12:44:25.226Z,93551.53
2018-06-09T12:46:52.909Z,93548.83
2018-06-09T12:49:20.600Z,93541.38
2018-06-09T12:51:48.312Z,93540.98
2018-06-09T12:54:16.005Z,93550.11
2018-06-09T12:56:43.708Z,93541.03
2018-06-09T12:59:11.403Z,93537.86
2018-06-09T13:01:39.086Z,93523.47
2018-06-09T13:04:06.810Z,93519.74
2018-06-09T13:06:34.486Z,93521.65
2018-06-09T13:09:02.296Z,93532.05
2018-06-09T13:11:30.039Z,93537.91
2018-06-09T13:13:57.757Z,93548.59
2018-06-09T13:16:25.501Z,93549.12
2018-06-09T13:18:53.204Z,93534.71
2018-06-09T13:21:20.910Z,93536.83
2018-06-09T13:23:48.635Z,93539.43
2018-06-09T13:26:16.319Z,93534.69
2018-06-09T13:28:44.092Z,93529.63
2018-06-09T13:31:11.860Z,93529.33
2018-06-09T13:33:39.582Z,93530.94
2018-06-09T13:36:07.352Z,93537.55
2018-06-09T13:38:35.099Z,93545.77
2018-06-09T13:41:02.790Z,93556.42
2018-06-09T13:43:30.700Z,93554.33
2018-06-09T13:45:58.439Z,93572.09
2018-06-09T13:48:26.153Z,93585.96
2018-06-09T13:50:53.931Z,93584.63
2018-06-09T13:53:21.658Z,93571.55
2018-06-09T13:55:49.356Z,93562.20
2018-06-09T13:58:17.118Z,93560.58
2018-06-09T14:00:44.822Z,93566.16
2018-06-09T14:03:12.521Z,93563.20
2018-06-09T14:05:40.225Z,93581.41
2018-06-09T14:08:07.942Z,93576.85
2018-06-09T14:10:35.736Z,93575.27
2018-06-09T14:13:03.460Z,93571.25
2018-06-09T14:15:31.235Z,93575.27
2018-06-09T14:17:58.947Z,93575.27
2018-06-09T14:20:26.644Z,93575.26
2018-06-09T14:22:55.203Z,93574.48
2018-06-09T14:25:23.167Z,93568.31
2018-06-09T14:27:50.856Z,93568.86
2018-06-09T14:30:18.555Z,93567.78
2018-06-09T14:32:46.337Z,93557.64
2018-06-09T14:35:14.064Z,93555.52
2018-06-09T14:37:41.776Z,93553.39
2018-06-09T14:40:09.511Z,93555.00
2018-06-09T14:42:37.219Z,93548.31
2018-06-09T14:45:05.018Z,93542.93
2018-06-09T14:47:32.733Z,93542.12
2018-06-09T14:50:00.434Z,93527.70
2018-06-09T14:52:28.150Z,93529.86
2018-06-09T14:54:56.120Z,93524.27
2018-06-09T14:57:23.828Z,93519.97
2018-06-09T14:59:51.547Z,93520.30
2018-06-09T15:02:19.228Z,93508.01
2018-06-09T15:04:46.962Z,93509.03
2018-06-09T15:07:14.682Z,93502.89
2018-06-09T15:09:42.419Z,93505.03
2018-06-09T15:12:10.122Z,93504.63
2018-06-09T15:14:37.838Z,93507.37
2018-06-09T15:17:05.565Z,93508.89
2018-06-09T15:19:33.336Z,93514.59
2018-06-09T15:22:01.071Z,93514.77
2018-06-09T15:24:28.839Z,93503.83
2018-06-09T15:26:56.587Z,93504.47
2018-06-09T15:29:24.272Z,93499.58
2018-06-09T15:31:51.966Z,93494.30
2018-06-09T15:34:19.696Z,93487.81
2018-06-09T15:36:47.433Z,93497.55
2018-06-09T15:39:15.469Z,93489.76
2018-06-09T15:41:43.175Z,93486.84
2018-06-09T15:44:10.891Z,93484.17
2018-06-09T15:46:38.652Z,93480.12
2018-06-09T15:49:06.336Z,93471.38
2018-06-09T15:51:34.039Z,93476.15
2018-06-09T15:54:01.759Z,93475.34
2018-06-09T15:56:29.484Z,93479.36
2018-06-09T15:58:57.247Z,93478.75
2018-06-09T16:01:25.070Z,93476.15
2018-06-09T16:03:52.803Z,93474.51
2018-06-09T16:06:20.510Z,93477.37
2018-06-09T16:08:48.249Z,93482.80
2018-06-09T16:11:15.946Z,93489.22
2018-06-09T16:13:43.707Z,93485.14
2018-06-09T16:16:11.507Z,93498.89
2018-06-09T16:18:39.246Z,93502.56
2018-06-09T16:21:06.976Z,93511.95
2018-06-09T16:23:34.660Z,93513.59
2018-06-09T16:26:02.362Z,93518.61
2018-06-09T16:28:30.125Z,93525.27
2018-06-09T16:30:57.900Z,93531.61
2018-06-09T16:33:25.572Z,93535.28
2018-06-09T16:35:53.252Z,93538.92
2018-06-09T16:38:20.967Z,93535.75
2018-06-09T16:40:48.651Z,93540.56
2018-06-09T16:43:16.373Z,93544.16
2018-06-09T16:45:44.146Z,93545.38
2018-06-09T16:48:11.891Z,93546.45
2018-06-09T16:50:39.595Z,93543.51
2018-06-09T16:53:07.299Z,93558.88
2018-06-09T16:55:35.035Z,93553.59
2018-06-09T16:58:02.874Z,93551.51
2018-06-09T17:00:30.494Z,93562.23
2018-06-09T17:02:58.159Z,93562.77
2018-06-09T17:05:25.842Z,93568.09
2018-06-09T17:07:53.567Z,93567.58
2018-06-09T17:10:21.331Z,93566.00
2018-06-09T17:12:49.035Z,93565.92
2018-06-09T17:15:16.764Z,93565.45
2018-06-09T17:17:44.530Z,93571.05
2018-06-09T17:20:12.239Z,93579.36
2018-06-09T17:22:39.953Z,93583.92
2018-06-09T17:25:07.677Z,93589.31
2018-06-09T17:27:35.397Z,93589.06
2018-06-09T17:30:03.174Z,93587.41
2018-06-09T17:32:30.914Z,93585.41
2018-06-09T17:34:58.645Z,93574.48
2018-06-09T17:37:26.359Z,93581.97
2018-06-09T17:39:54.085Z,93587.53
2018-06-09T17:42:21.803Z,93584.03
2018-06-09T17:44:49.550Z,93577.64
2018-06-09T17:47:17.259Z,93568.61
2018-06-09T17:49:44.965Z,93569.15
2018-06-09T17:52:12.696Z,93567.26
2018-06-09T17:54:40.353Z,93565.12
2018-06-09T17:57:08.081Z,93562.99
2018-06-09T17:59:35.817Z,93568.34
2018-06-09T18:02:03.591Z,93564.88
2018-06-09T18:04:31.335Z,93561.66
2018-06-09T18:06:59.167Z,93561.92
2018-06-09T18:09:26.859Z,93556.56
2018-06-09T18:11:54.554Z,93553.37
2018-06-09T18:14:22.255Z,93555.52
2018-06-09T18:16:49.985Z,93553.37
2018-06-09T18:19:17.702Z,93560.87
2018-06-09T18:21:45.409Z,93559.77
2018-06-09T18:24:13.105Z,93559.25
2018-06-09T18:26:40.816Z,93560.84
2018-06-09T18:29:08.599Z,93562.45
2018-06-09T18:31:36.370Z,93549.64
2018-06-09T18:34:04.268Z,93552.59
2018-06-09T18:36:31.969Z,93556.59
2018-06-09T18:38:59.661Z,93548.59
2018-06-09T18:41:27.342Z,93553.13
2018-06-09T18:43:55.049Z,93544.85
2018-06-09T18:46:22.757Z,93549.12
2018-06-09T18:48:50.510Z,93552.87
2018-06-09T18:51:18.212Z,93550.98
2018-06-09T18:53:45.895Z,93557.12
2018-06-09T18:56:13.593Z,93556.57
2018-06-09T18:58:41.383Z,93557.30
2018-06-09T19:01:09.114Z,93555.41
2018-06-09T19:03:36.857Z,93552.23
2018-06-09T19:06:04.628Z,93560.17
2018-06-09T19:08:32.374Z,93560.23
2018-06-09T19:11:00.272Z,93553.76
2018-06-09T19:13:28.003Z,93559.30
2018-06-09T19:15:55.731Z,93562.25
2018-06-09T19:18:23.452Z,93569.14
2018-06-09T19:20:51.164Z,93576.08
2018-06-09T19:23:18.880Z,93578.62
2018-06-09T19:25:46.655Z,93583.45
2018-06-09T19:28:14.364Z,93585.93
2018-06-09T19:30:42.111Z,93589.40
2018-06-09T19:33:09.909Z,93592.08
2018-06-09T19:35:37.625Z,93598.47
2018-06-09T19:38:05.307Z,93596.08
2018-06-09T19:40:33.211Z,93594.20
2018-06-09T19:43:00.925Z,93602.75
2018-06-09T19:45:28.971Z,93600.48
2018-06-09T19:47:56.685Z,93601.23
2018-06-09T19:50:24.407Z,93608.16
2018-06-09T19:52:52.271Z,93605.38
2018-06-09T19:55:19.993Z,93607.20
2018-06-09T19:57:47.703Z,93606.67
2018-06-09T20:00:15.467Z,93612.97
2018-06-09T20:02:43.139Z,93614.69
2018-06-09T20:05:10.918Z,93614.03
2018-06-09T20:07:38.633Z,93626.89
2018-06-09T20:10:06.411Z,93628.34
2018-06-09T20:12:34.116Z,93635.63
2018-06-09T20:15:01.931Z,93641.53
2018-06-09T20:17:29.993Z,93648.55
2018-06-09T20:19:57.657Z,93643.78
2018-06-09T20:22:25.330Z,93645.88
2018-06-09T20:24:53.130Z,93637.70
2018-06-09T20:27:20.856Z,93635.52
2018-06-09T20:29:48.603Z,93632.42
2018-06-09T20:32:16.391Z,93635.21
2018-06-09T20:34:44.143Z,93644.24
2018-06-09T20:37:11.907Z,93646.48
2018-06-09T20:39:39.646Z,93645.48
2018-06-09T20:42:07.464Z,93642.17
2018-06-09T20:44:35.205Z,93645.48
2018-06-09T20:47:02.970Z,93647.53
2018-06-09T20:49:30.693Z,93644.68
2018-06-09T20:51:58.480Z,93654.37
2018-06-09T20:54:26.256Z,93660.13
2018-06-09T20:56:53.993Z,93662.72
2018-06-09T20:59:21.800Z,93673.16
2018-06-09T21:01:49.619Z,93663.95
2018-06-09T21:04:17.315Z,93660.73
2018-06-09T21:06:44.998Z,93662.72
2018-06-09T21:09:12.747Z,93667.45
2018-06-09T21:11:40.486Z,93664.23
2018-06-09T21:14:08.267Z,93660.41
2018-06-09T21:16:36.006Z,93662.77
2018-06-09T21:19:03.875Z,93663.52
2018-06-09T21:21:31.559Z,93666.94
2018-06-09T21:23:59.242Z,93664.66
2018-06-09T21:26:32.597Z,93659.39
2018-06-09T21:29:00.347Z,93665.92
2018-06-09T21:31:33.031Z,93659.79
2018-06-09T21:34:06.407Z,93665.23
2018-06-09T21:36:39.867Z,93661.38
2018-06-09T21:39:13.742Z,93657.10
2018-06-09T21:41:47.208Z,93651.76
2018-06-09T21:44:20.747Z,93647.43
2018-06-09T21:46:48.673Z,93648.95
2018-06-09T21:49:16.654Z,93644.14
2018-06-09T21:51:44.374Z,93645.67
2018-06-09T21:54:12.051Z,93646.19
2018-06-09T21:56:39.741Z,93643.48
2018-06-09T21:59:07.482Z,93639.73
2018-06-09T22:01:35.587Z,93641.70
2018-06-09T22:04:03.318Z,93645.22
2018-06-09T22:06:31.002Z,93650.59
2018-06-09T22:08:58.753Z,93648.80
2018-06-09T22:11:26.507Z,93642.38
2018-06-09T22:13:54.474Z,93647.00
2018-06-09T22:16:22.172Z,93648.80
2018-06-09T22:18:49.868Z,93649.84
2018-06-09T22:21:17.604Z,93639.77
2018-06-09T22:23:45.292Z,93641.64
2018-06-09T22:26:16.252Z,93640.85
2018-06-09T22:28:43.985Z,93645.02
2018-06-09T22:31:11.686Z,93643.98
2018-06-09T22:33:39.377Z,93646.63
2018-06-09T22:36:07.160Z,93642.30
2018-06-09T22:38:34.914Z,93643.91
2018-06-09T22:41:02.635Z,93637.42
2018-06-09T22:43:30.358Z,93644.20
2018-06-09T22:45:58.098Z,93637.63
2018-06-09T22:48:25.859Z,93646.43
2018-06-09T22:50:53.632Z,93643.00
2018-06-09T22:53:21.355Z,93643.51
2018-06-09T22:55:49.035Z,93639.28
2018-06-09T22:58:16.734Z,93654.59
2018-06-09T23:00:48.448Z,93651.01
2018-06-09T23:03:16.436Z,93661.84
2018-06-09T23:05:44.598Z,93665.03
2018-06-09T23:08:12.311Z,93660.02
2018-06-09T23:10:40.024Z,93654.95
2018-06-09T23:13:07.721Z,93654.06
2018-06-09T23:15:35.596Z,93660.45
2018-06-09T23:18:03.309Z,93664.43
2018-06-09T23:20:31.059Z,93668.63
2018-06-09T23:22:58.760Z,93662.73
2018-06-09T23:25:26.529Z,93662.09
2018-06-09T23:27:54.202Z,93663.89
2018-06-09T23:30:21.896Z,93670.95
2018-06-09T23:32:49.622Z,93662.81
2018-06-09T23:35:17.343Z,93677.16
2018-06-09T23:37:45.028Z,93672.89
2018-06-09T23:40:12.822Z,93666.47
2018-06-09T23:42:40.541Z,93657.25
2018-06-09T23:45:08.249Z,93659.37
2018-06-09T23:47:35.932Z,93654.53
2018-06-09T23:50:03.743Z,93648.58
2018-06-09T23:52:31.472Z,93640.72
2018-06-09T23:54:59.183Z,93643.70
2018-06-09T23:57:26.874Z,93649.89
2018-06-09T23:59:54.545Z,93643.55
